Time;durP1;ratioP1;P1;durP2;ratioP2;P2;SDS_P1;SDS_P2;PMS_P1;PMS_P2;Temp;Humidity;BMP_temperature;BMP_pressure;BME280_temperature;BME280_humidity;BME280_pressure;Samples;Min_cycle;Max_cycle;Signal;HPM_P1;HPM_P2
2022/08/30 00:02:05;;;;;;;;;;;16.90;99.90;;;15.76;100.00;95925.22;10482992;28;1988;-73
2022/08/30 00:07:09;;;;;;;;;;;16.80;99.90;;;15.67;100.00;95932.47;10481356;28;2063;-73
2022/08/30 00:12:12;;;;;;;;;;;16.80;99.90;;;15.55;100.00;95924.00;10479412;28;2024;-73
2022/08/30 00:17:15;;;;;;;;;;;16.60;99.90;;;15.55;100.00;95924.00;10463415;28;1994;-73
2022/08/30 00:22:18;;;;;;;;;;;16.60;99.90;;;15.51;100.00;95923.00;10481070;28;1910;-75
2022/08/30 00:27:21;;;;;;;;;;;16.50;99.90;;;15.49;100.00;95922.50;10483952;28;2057;-74
2022/08/30 00:32:23;;;;;;;;;;;16.60;99.90;;;15.47;100.00;95917.38;10487615;28;2050;-75
2022/08/30 00:37:26;;;;;;;;;;;16.60;99.90;;;15.60;100.00;95922.00;10485564;28;1948;-73
2022/08/30 00:42:29;;;;;;;;;;;16.60;99.90;;;15.67;100.00;95921.63;10491617;28;1918;-73
2022/08/30 00:47:32;;;;;;;;;;;16.70;99.90;;;15.67;100.00;95917.00;10488587;28;1945;-72
2022/08/30 00:52:35;;;;;;;;;;;16.80;99.90;;;15.56;100.00;95910.16;10487778;28;2106;-72
2022/08/30 00:57:38;;;;;;;;;;;16.60;99.90;;;15.50;100.00;95903.22;10488732;28;2019;-72
2022/08/30 01:02:41;;;;;;;;;;;16.60;99.90;;;15.47;100.00;95911.97;10486397;28;2123;-70
2022/08/30 01:07:45;;;;;;;;;;;16.60;99.90;;;15.43;100.00;95908.25;10483085;28;2151;-72
2022/08/30 01:12:48;;;;;;;;;;;16.50;99.90;;;15.44;100.00;95912.56;10479408;28;1992;-73
2022/08/30 01:17:54;;;;;;;;;;;16.50;99.90;;;15.39;100.00;95912.66;10479717;28;2071;-71
2022/08/30 01:22:57;;;;;;;;;;;16.50;99.90;;;15.34;100.00;95907.34;10483535;28;1964;-68
2022/08/30 01:28:00;;;;;;;;;;;17.60;99.90;;;15.23;100.00;95906.72;10491598;28;1969;-72
2022/08/30 01:33:03;;;;;;;;;;;16.30;99.90;;;15.24;100.00;95910.25;10480405;28;2072;-69
2022/08/30 01:38:06;;;;;;;;;;;16.30;99.90;;;15.21;100.00;95908.16;10482055;28;2131;-69
2022/08/30 01:43:10;;;;;;;;;;;16.00;99.90;;;15.11;100.00;95911.84;10486737;28;1980;-70
2022/08/30 01:48:13;;;;;;;;;;;;;;;15.07;100.00;95908.91;10491748;28;1910;-69
2022/08/30 01:53:17;;;;;;;;;;;16.30;99.90;;;15.00;100.00;95913.91;10490791;28;2059;-69
2022/08/30 01:58:21;;;;;;;;;;;16.10;99.90;;;14.98;100.00;95901.78;10492464;28;1926;-70
2022/08/30 02:03:25;;;;;;;;;;;16.00;99.90;;;14.88;100.00;95910.88;10486000;28;2029;-71
2022/08/30 02:08:28;;;;;;;;;;;16.00;99.90;;;14.86;100.00;95902.25;10488476;28;1975;-72
2022/08/30 02:13:36;;;;;;;;;;;15.90;99.90;;;14.84;100.00;95909.88;10481802;28;2048;-73
2022/08/30 02:18:39;;;;;;;;;;;15.90;99.90;;;14.85;100.00;95916.91;10472647;28;2068;-72
2022/08/30 02:23:42;;;;;;;;;;;15.90;99.90;;;14.83;100.00;95908.28;10490454;28;2038;-72
2022/08/30 02:28:45;;;;;;;;;;;15.90;99.90;;;14.79;100.00;95909.97;10489230;28;1992;-73
2022/08/30 02:33:51;;;;;;;;;;;15.90;99.90;;;14.98;100.00;95909.91;10485040;28;2079;-76
2022/08/30 02:38:54;;;;;;;;;;;15.80;99.90;;;15.07;100.00;95903.50;10485744;28;2070;-73
2022/08/30 02:43:59;;;;;;;;;;;15.90;99.90;;;14.89;100.00;95907.09;10486223;28;2039;-70
2022/08/30 02:49:02;;;;;;;;;;;15.90;99.90;;;14.76;100.00;95907.84;10483534;28;2087;-70
2022/08/30 02:54:24;;;;;;;;;;;15.80;99.90;;;14.84;100.00;95918.00;10479672;28;1857;-71
2022/08/30 02:59:27;;;;;;;;;;;15.80;99.90;;;14.78;100.00;95922.69;10487350;28;1930;-71
2022/08/30 03:04:30;;;;;;;;;;;15.80;99.90;;;14.67;100.00;95917.75;10483669;28;2021;-70
2022/08/30 03:09:33;;;;;;;;;;;15.70;99.90;;;14.57;100.00;95916.81;10484973;28;2082;-71
2022/08/30 03:14:36;;;;;;;;;;;16.50;99.90;;;14.52;100.00;95925.00;10487590;28;2078;-74
2022/08/30 03:19:39;;;;;;;;;;;15.60;99.90;;;14.47;100.00;95933.19;10485383;28;2078;-72
2022/08/30 03:24:41;;;;;;;;;;;15.60;99.90;;;14.44;100.00;95933.78;10483131;28;2074;-73
2022/08/30 03:29:44;;;;;;;;;;;15.50;99.90;;;14.43;100.00;95937.53;10467399;28;1925;-69
2022/08/30 03:34:47;;;;;;;;;;;15.60;99.90;;;14.40;100.00;95927.34;10484643;28;2073;-71
2022/08/30 03:39:50;;;;;;;;;;;15.50;99.90;;;14.51;100.00;95928.81;10484324;28;2142;-69
2022/08/30 03:44:53;;;;;;;;;;;15.50;99.90;;;14.36;100.00;95925.50;10485826;28;1938;-69
2022/08/30 03:49:56;;;;;;;;;;;15.40;99.90;;;14.33;100.00;95921.50;10489189;28;2062;-74
2022/08/30 03:54:59;;;;;;;;;;;15.40;99.90;;;14.38;100.00;95924.13;10479848;28;2039;-73
2022/08/30 04:00:02;;;;;;;;;;;15.30;99.90;;;14.63;100.00;95916.72;10485308;28;2064;-71
2022/08/30 04:05:05;;;;;;;;;;;15.50;99.90;;;14.63;100.00;95919.41;10485005;28;2020;-69
2022/08/30 04:10:08;;;;;;;;;;;15.60;99.90;;;14.45;100.00;95927.25;10482496;28;2004;-70
2022/08/30 04:15:11;;;;;;;;;;;15.50;99.90;;;14.31;100.00;95937.19;10482439;28;2451;-70
2022/08/30 04:20:14;;;;;;;;;;;15.40;99.90;;;14.26;100.00;95937.28;10490658;28;2070;-70
2022/08/30 04:25:17;;;;;;;;;;;15.30;99.90;;;14.18;100.00;95935.22;10485580;28;2086;-70
2022/08/30 04:30:20;;;;;;;;;;;15.30;99.90;;;14.19;100.00;95942.25;10484601;28;2042;-70
2022/08/30 04:35:23;;;;;;;;;;;15.20;99.90;;;14.24;100.00;95951.06;10484766;28;2083;-69
2022/08/30 04:40:26;;;;;;;;;;;15.20;99.90;;;14.26;100.00;95954.31;10479917;28;2140;-70
2022/08/30 04:45:29;;;;;;;;;;;15.20;99.90;;;14.37;100.00;95951.44;10480871;28;1991;-70
2022/08/30 04:50:32;;;;;;;;;;;15.30;99.90;;;14.51;100.00;95955.06;10482840;28;2059;-68
2022/08/30 04:55:43;;;;;;;;;;;15.30;99.90;;;14.73;100.00;95962.56;10481443;28;2078;-69
2022/08/30 05:00:46;;;;;;;;;;;15.50;99.90;;;14.96;100.00;95964.34;10478960;28;1981;-70
2022/08/30 05:05:49;;;;;;;;;;;15.70;99.90;;;15.34;100.00;95973.16;10478579;28;2044;-71
2022/08/30 05:10:52;;;;;;;;;;;15.90;99.90;;;15.71;100.00;95976.81;10467413;28;2073;-70
2022/08/30 05:15:55;;;;;;;;;;;16.20;99.90;;;16.12;100.00;95976.00;10484446;28;1902;-69
2022/08/30 05:20:58;;;;;;;;;;;16.60;99.90;;;16.56;100.00;95986.16;10490156;28;2020;-70
2022/08/30 05:26:01;;;;;;;;;;;17.00;99.90;;;16.95;100.00;95976.56;10488495;28;2056;-70
2022/08/30 05:31:04;;;;;;;;;;;17.30;99.90;;;17.22;100.00;95976.41;10489750;28;2213;-70
2022/08/30 05:36:15;;;;;;;;;;;17.60;99.90;;;17.63;100.00;95974.56;10487720;28;2077;-74
2022/08/30 05:41:18;;;;;;;;;;;18.00;99.90;;;18.15;100.00;95964.69;10468756;28;2016;-75
2022/08/30 05:46:21;;;;;;;;;;;18.20;99.90;;;18.20;100.00;95961.00;10487435;28;2054;-73
2022/08/30 05:51:24;;;;;;;;;;;18.60;99.90;;;18.56;100.00;95958.00;10488533;28;2072;-71
2022/08/30 05:56:27;;;;;;;;;;;18.80;99.90;;;18.61;100.00;95947.75;10487718;28;2058;-73
2022/08/30 06:01:30;;;;;;;;;;;18.90;99.90;;;18.69;100.00;95956.25;10487631;28;2047;-74
2022/08/30 06:06:33;;;;;;;;;;;19.10;99.90;;;18.77;100.00;95952.75;10488451;28;2056;-73
2022/08/30 06:11:37;;;;;;;;;;;19.20;99.90;;;18.94;100.00;95958.16;10488784;28;2093;-71
2022/08/30 06:16:39;;;;;;;;;;;19.40;99.90;;;19.34;100.00;95957.91;10484181;28;1929;-70
2022/08/30 06:21:42;;;;;;;;;;;19.60;99.90;;;19.37;100.00;95963.53;10487495;28;2040;-72
2022/08/30 06:26:45;;;;;;;;;;;19.90;99.90;;;19.53;100.00;95963.00;10483243;28;1913;-71
2022/08/30 06:31:48;;;;;;;;;;;20.00;99.90;;;19.55;100.00;95960.75;10470574;28;1871;-72
2022/08/30 06:36:51;;;;;;;;;;;20.10;99.90;;;19.90;100.00;95959.50;10489760;28;2009;-71
2022/08/30 06:41:54;;;;;;;;;;;20.20;99.90;;;20.18;100.00;95962.59;10487760;28;2372;-70
2022/08/30 06:46:57;;;;;;;;;;;20.40;99.90;;;20.31;100.00;95959.94;10485578;28;2083;-73
2022/08/30 06:52:00;;;;;;;;;;;20.60;99.90;;;20.37;100.00;95964.88;10484803;28;2051;-70
2022/08/30 06:57:05;;;;;;;;;;;20.80;99.90;;;20.42;100.00;95959.22;10486350;28;2067;-71
2022/08/30 07:02:08;;;;;;;;;;;20.90;99.90;;;20.67;99.29;95962.09;10469798;28;2079;-73
2022/08/30 07:07:11;;;;;;;;;;;21.10;99.90;;;21.17;95.10;95961.19;10484143;28;2011;-71
2022/08/30 07:12:14;;;;;;;;;;;21.40;99.90;;;21.19;94.76;95956.19;10478353;28;2000;-72
2022/08/30 07:22:37;;;;;;;;;;;21.70;99.90;;;21.50;93.61;95956.53;10485330;28;2085;-76
2022/08/30 07:27:40;;;;;;;;;;;21.90;99.90;;;21.35;92.96;95959.91;10485437;28;2079;-73
2022/08/30 07:32:43;;;;;;;;;;;22.00;99.90;;;21.30;92.87;95957.38;10497535;28;2070;-74
2022/08/30 07:37:46;;;;;;;;;;;22.00;99.90;;;21.38;91.87;95952.97;10484602;28;1949;-71
2022/08/30 07:42:49;;;;;;;;;;;22.10;99.90;;;21.90;90.54;95958.63;10483809;28;1907;-71
2022/08/30 07:47:52;;;;;;;;;;;22.30;99.90;;;21.76;91.50;95953.50;10480157;28;2074;-72
2022/08/30 07:52:55;;;;;;;;;;;22.40;99.90;;;21.73;93.72;95961.56;10481369;28;2083;-72
2022/08/30 07:57:57;;;;;;;;;;;22.30;99.90;;;22.16;91.35;95960.25;10484800;28;2100;-71
2022/08/30 08:03:00;;;;;;;;;;;22.50;99.90;;;21.83;93.09;95953.72;10480153;28;2245;-71
2022/08/30 08:08:03;;;;;;;;;;;22.50;99.90;;;22.04;91.55;95956.34;10483229;28;2103;-71
2022/08/30 08:13:06;;;;;;;;;;;22.60;99.90;;;22.23;89.96;95961.25;10462327;28;2033;-71
2022/08/30 08:18:10;;;;;;;;;;;22.80;99.90;;;22.50;86.84;95965.22;10481182;28;2043;-71
2022/08/30 08:23:13;;;;;;;;;;;23.00;99.90;;;22.67;86.67;95956.72;10482529;28;1993;-71
2022/08/30 08:28:16;;;;;;;;;;;23.30;99.90;;;22.43;87.22;95958.72;10481393;28;2003;-71
2022/08/30 08:33:20;;;;;;;;;;;23.30;99.90;;;22.67;86.67;95950.47;10479382;28;2035;-71
2022/08/30 08:38:23;;;;;;;;;;;23.30;99.90;;;23.06;82.08;95962.56;10483746;28;2062;-71
2022/08/30 08:43:26;;;;;;;;;;;23.60;99.90;;;23.51;80.15;95961.44;10481775;28;2315;-72
2022/08/30 08:48:37;;;;;;;;;;;24.00;99.90;;;23.03;77.71;95968.75;10480335;28;2341;-71
2022/08/30 08:54:00;;;;;;;;;;;23.90;99.90;;;22.99;77.44;95965.13;10489311;28;2299;-69
2022/08/30 08:59:03;;;;;;;;;;;23.90;99.90;;;23.46;77.08;95972.66;10488343;28;2380;-71
2022/08/30 09:04:06;;;;;;;;;;;23.90;99.90;;;23.06;73.77;95964.50;10501190;28;2050;-71
2022/08/30 09:09:09;;;;;;;;;;;24.00;99.90;;;23.35;70.49;95949.63;10491249;28;2409;-71
2022/08/30 09:14:12;;;;;;;;;;;24.00;99.90;;;23.65;69.33;95950.84;10487895;28;2309;-75
2022/08/30 09:19:15;;;;;;;;;;;24.30;99.90;;;23.02;73.04;95947.94;10491553;28;2360;-73
2022/08/30 09:24:21;;;;;;;;;;;24.20;99.90;;;23.86;70.77;95944.31;10489358;28;2074;-71
2022/08/30 09:29:27;;;;;;;;;;;24.30;99.90;;;24.21;68.05;95947.91;10491560;28;2462;-70
2022/08/30 09:34:30;;;;;;;;;;;24.80;99.90;;;23.76;64.45;95939.34;10485686;28;2045;-78
2022/08/30 09:39:33;;;;;;;;;;;24.70;99.90;;;23.79;65.31;95935.88;10488176;28;2312;-72
2022/08/30 09:44:36;;;;;;;;;;;24.70;99.90;;;24.07;66.22;95933.03;10485600;28;2314;-71
2022/08/30 09:49:39;;;;;;;;;;;24.70;99.90;;;23.82;69.23;95927.75;10490833;28;2098;-71
2022/08/30 09:54:42;;;;;;;;;;;24.80;99.90;;;23.84;65.11;95917.19;10487143;28;2336;-71
2022/08/30 09:59:45;;;;;;;;;;;24.60;99.90;;;24.23;65.92;95912.63;10490237;28;2354;-71
2022/08/30 10:04:48;;;;;;;;;;;24.80;99.90;;;23.76;67.15;95911.91;10484457;28;2351;-71
2022/08/30 10:09:53;;;;;;;;;;;;;;;23.64;68.45;95905.34;10490161;28;2304;-70
2022/08/30 10:14:56;;;;;;;;;;;;;;;24.39;66.52;95895.34;10483893;28;2304;-71
2022/08/30 10:20:00;;;;;;;;;;;;;;;23.99;65.35;95896.41;10489172;28;2393;-72
2022/08/30 10:25:03;;;;;;;;;;;24.80;99.90;;;23.72;66.84;95898.88;10484093;28;2342;-71
2022/08/30 10:30:07;;;;;;;;;;;24.90;99.90;;;23.95;63.30;95892.75;10470341;28;2358;-72
2022/08/30 10:35:15;;;;;;;;;;;24.90;99.90;;;24.08;60.57;95886.00;10488256;28;2007;-72
2022/08/30 10:45:57;;;;;;;;;;;25.00;99.90;;;24.41;59.07;95880.09;10332810;28;2089;-71
2022/08/30 10:51:00;;;;;;;;;;;25.20;99.90;;;24.75;54.47;95867.47;10457099;28;2034;-71
2022/08/30 10:56:04;;;;;;;;;;;25.40;99.90;;;24.74;51.86;95865.84;10470827;28;2330;-68
2022/08/30 11:01:07;;;;;;;;;;;25.50;99.90;;;24.86;53.30;95866.84;10472004;28;2600;-71
2022/08/30 11:06:18;;;;;;;;;;;25.60;99.90;;;24.94;53.10;95858.41;10471282;28;2050;-73
2022/08/30 11:11:21;;;;;;;;;;;25.70;99.90;;;24.53;54.30;95866.22;10481433;28;2338;-70
2022/08/30 11:16:24;;;;;;;;;;;25.60;99.90;;;24.21;54.41;95861.97;10470161;28;2352;-71
2022/08/30 11:21:27;;;;;;;;;;;25.30;99.90;;;24.53;56.69;95865.41;10490540;28;2296;-71
2022/08/30 11:26:33;;;;;;;;;;;25.10;99.90;;;24.14;53.90;95848.06;10484362;28;2400;-72
2022/08/30 11:31:36;;;;;;;;;;;25.20;99.90;;;24.61;53.83;95847.91;10484990;28;2043;-72
2022/08/30 11:36:40;;;;;;;;;;;25.30;99.90;;;24.47;54.69;95845.66;10485523;28;2077;-72
2022/08/30 11:41:49;;;;;;;;;;;25.20;99.90;;;24.34;54.40;95841.47;10483924;28;2043;-71
2022/08/30 11:46:53;;;;;;;;;;;25.30;99.90;;;24.44;54.25;95851.91;10495994;28;2451;-72
2022/08/30 11:51:56;;;;;;;;;;;25.20;99.90;;;24.26;55.22;95853.44;10481327;28;2401;-70
2022/08/30 11:57:19;;;;;;;;;;;25.30;99.90;;;24.47;54.64;95853.13;10480890;28;2095;-71
2022/08/30 12:02:22;;;;;;;;;;;25.30;99.90;;;24.67;55.17;95837.44;10483047;28;2014;-71
2022/08/30 12:07:25;;;;;;;;;;;25.40;99.90;;;24.69;55.15;95841.41;10468566;28;2434;-71
2022/08/30 12:12:28;;;;;;;;;;;25.60;99.90;;;24.34;55.58;95841.47;10479334;28;2460;-72
2022/08/30 12:22:52;;;;;;;;;;;25.10;99.90;;;24.62;54.01;95830.28;10482480;28;2066;-71
2022/08/30 12:27:55;;;;;;;;;;;25.20;99.90;;;24.86;52.16;95829.16;10493910;28;2305;-71
2022/08/30 12:33:03;;;;;;;;;;;25.60;99.90;;;25.13;51.63;95830.09;10489983;28;2348;-70
2022/08/30 12:38:06;;;;;;;;;;;25.80;99.90;;;25.47;50.67;95830.28;10494655;28;2271;-70
2022/08/30 12:43:09;;;;;;;;;;;26.10;99.90;;;25.19;49.86;95823.09;10492624;28;2344;-70
2022/08/30 12:48:12;;;;;;;;;;;26.20;99.90;;;25.19;51.07;95820.34;10493552;28;2431;-72
2022/08/30 12:53:15;;;;;;;;;;;26.10;99.90;;;25.16;50.93;95825.81;10487306;28;2314;-71
2022/08/30 12:58:18;;;;;;;;;;;26.00;99.90;;;25.35;47.01;95820.25;10489999;28;2346;-73
2022/08/30 13:03:21;;;;;;;;;;;26.10;99.90;;;25.20;48.09;95815.66;10489743;28;2062;-75
2022/08/30 13:08:33;;;;;;;;;;;26.10;99.90;;;25.53;47.06;95812.28;10492574;28;2348;-71
2022/08/30 13:13:36;;;;;;;;;;;26.20;99.90;;;25.44;47.62;95808.97;10492956;28;2227;-73
2022/08/30 13:18:39;;;;;;;;;;;26.20;99.90;;;25.70;47.73;95810.94;10492288;28;2094;-71
2022/08/30 13:23:43;;;;;;;;;;;26.30;99.90;;;25.68;47.46;95797.56;10488405;28;2130;-72
2022/08/30 13:28:45;;;;;;;;;;;26.40;99.90;;;25.84;46.83;95787.22;10491270;28;2309;-69
2022/08/30 13:33:51;;;;;;;;;;;26.40;99.90;;;25.92;46.35;95776.31;10489018;28;2273;-71
2022/08/30 13:38:54;;;;;;;;;;;26.50;99.90;;;25.87;45.27;95778.22;10469429;28;2291;-70
2022/08/30 13:43:59;;;;;;;;;;;26.50;99.90;;;25.81;44.26;95767.88;10484772;28;2395;-70
2022/08/30 13:49:17;;;;;;;;;;;26.60;99.90;;;25.70;44.51;95767.69;10491632;28;2269;-70
2022/08/30 13:54:45;;;;;;;;;;;26.40;99.90;;;25.69;43.98;95763.34;10485479;28;2035;-73
2022/08/30 13:59:51;;;;;;;;;;;26.50;99.90;;;25.81;44.56;95760.41;10486165;28;2080;-73
2022/08/30 14:04:57;;;;;;;;;;;26.60;99.90;;;25.93;43.00;95753.91;10486574;28;2305;-71
2022/08/30 14:10:04;;;;;;;;;;;26.60;99.90;;;26.01;42.31;95754.78;10490601;28;2332;-70
2022/08/30 14:15:27;;;;;;;;;;;26.60;99.90;;;25.94;41.77;95749.19;10488531;28;2027;-71
2022/08/30 14:20:30;;;;;;;;;;;26.60;99.90;;;25.87;40.49;95753.44;10487967;28;2409;-72
2022/08/30 14:25:33;;;;;;;;;;;26.70;99.90;;;26.28;40.18;95742.56;10485058;28;2062;-71
2022/08/30 14:30:35;;;;;;;;;;;26.80;99.90;;;26.10;40.59;95750.59;10487901;28;2376;-71
2022/08/30 14:35:38;;;;;;;;;;;26.80;99.90;;;26.27;40.05;95735.44;10481355;28;2122;-70
2022/08/30 14:40:41;;;;;;;;;;;26.90;99.90;;;26.40;40.68;95736.81;10486104;28;2314;-71
2022/08/30 14:45:44;;;;;;;;;;;26.90;99.90;;;26.09;40.17;95731.69;10484702;28;2043;-70
2022/08/30 14:50:47;;;;;;;;;;;26.90;99.90;;;25.88;39.82;95726.69;10482827;28;2340;-71
2022/08/30 14:55:50;;;;;;;;;;;26.70;99.90;;;26.14;39.32;95714.81;10483353;28;2301;-71
2022/08/30 15:00:53;;;;;;;;;;;26.70;99.90;;;26.30;38.99;95718.16;10486792;28;2320;-70
2022/08/30 15:05:56;;;;;;;;;;;26.80;99.90;;;25.78;39.59;95703.34;10488421;28;2344;-73
2022/08/30 15:11:00;;;;;;;;;;;26.70;99.90;;;25.97;39.89;95690.63;10485809;28;2352;-70
2022/08/30 15:16:04;;;;;;;;;;;26.60;99.90;;;25.64;41.54;95697.63;10485997;28;2416;-71
2022/08/30 15:21:07;;;;;;;;;;;26.40;99.90;;;25.34;41.98;95690.13;10488493;28;2304;-73
2022/08/30 15:26:10;;;;;;;;;;;26.30;99.90;;;25.50;41.73;95678.16;10485043;28;2348;-72
2022/08/30 15:31:13;;;;;;;;;;;26.10;99.90;;;25.17;42.00;95689.84;10480400;28;2353;-72
2022/08/30 15:36:16;;;;;;;;;;;26.10;99.90;;;25.12;41.52;95682.72;10484567;28;2363;-74
2022/08/30 15:41:19;;;;;;;;;;;25.90;99.90;;;25.03;42.23;95673.91;10481268;28;2298;-74
2022/08/30 15:46:22;;;;;;;;;;;25.80;99.90;;;24.76;42.88;95676.63;10486932;28;2332;-73
2022/08/30 15:51:31;;;;;;;;;;;25.70;99.90;;;24.78;43.65;95671.53;10486026;28;2164;-71
2022/08/30 15:56:46;;;;;;;;;;;25.60;99.90;;;24.61;44.23;95669.28;10484999;28;2343;-71
2022/08/30 16:01:48;;;;;;;;;;;25.40;99.90;;;24.59;44.81;95670.81;10483873;28;2359;-69
2022/08/30 16:06:51;;;;;;;;;;;25.30;99.90;;;24.52;44.97;95660.50;10483712;28;2315;-70
2022/08/30 16:11:54;;;;;;;;;;;25.30;99.90;;;24.42;44.97;95661.09;10485959;28;2213;-70
2022/08/30 16:16:57;;;;;;;;;;;25.20;99.90;;;24.28;44.94;95651.41;10480213;28;2359;-73
2022/08/30 16:22:00;;;;;;;;;;;25.10;99.90;;;24.22;44.97;95652.06;10478362;28;2204;-69
2022/08/30 16:27:03;;;;;;;;;;;25.00;99.90;;;24.10;45.50;95650.28;10483716;28;2097;-71
2022/08/30 16:32:06;;;;;;;;;;;25.00;99.90;;;24.04;46.60;95646.22;10475261;28;2341;-70
2022/08/30 16:37:09;;;;;;;;;;;24.80;99.90;;;24.01;46.13;95641.47;10478182;28;2686;-75
2022/08/30 16:42:13;;;;;;;;;;;24.80;99.90;;;23.98;47.23;95636.69;10477352;28;2285;-72
2022/08/30 16:47:22;;;;;;;;;;;24.70;99.90;;;23.82;47.92;95644.25;10481631;28;2389;-74
2022/08/30 16:52:25;;;;;;;;;;;24.70;99.90;;;23.68;48.09;95637.31;10481722;28;2070;-71
2022/08/30 16:57:28;;;;;;;;;;;24.50;99.90;;;23.54;48.70;95644.41;10480792;28;2321;-70
2022/08/30 17:02:31;;;;;;;;;;;24.40;99.90;;;23.39;49.22;95641.34;10482697;28;2062;-74
2022/08/30 17:07:34;;;;;;;;;;;24.30;99.90;;;23.26;49.87;95636.38;10480713;28;2389;-72
2022/08/30 17:12:37;;;;;;;;;;;24.20;99.90;;;23.15;50.77;95636.13;10478710;28;2018;-72
2022/08/30 17:17:40;;;;;;;;;;;24.00;99.90;;;22.99;51.76;95636.16;10487787;28;2700;-75
2022/08/30 17:22:44;;;;;;;;;;;23.90;99.90;;;22.91;52.06;95639.91;10482801;28;2273;-71
2022/08/30 17:27:47;;;;;;;;;;;23.80;99.90;;;22.78;52.36;95641.13;10490187;28;2086;-69
2022/08/30 17:32:52;;;;;;;;;;;23.60;99.90;;;22.70;52.91;95639.34;10492089;28;2386;-71
2022/08/30 17:37:55;;;;;;;;;;;23.60;99.90;;;22.59;53.72;95650.84;10489636;28;2320;-72
2022/08/30 17:42:58;;;;;;;;;;;23.40;99.90;;;22.48;54.28;95638.81;10487713;28;2041;-70
2022/08/30 17:48:00;;;;;;;;;;;23.40;99.90;;;22.35;55.46;95651.00;10487396;28;2059;-70
2022/08/30 17:53:03;;;;;;;;;;;23.30;99.90;;;22.13;56.29;95658.63;10478478;28;2477;-71
2022/08/30 17:58:06;;;;;;;;;;;23.10;99.90;;;22.06;57.05;95668.56;10485166;28;2052;-71
2022/08/30 18:03:09;;;;;;;;;;;23.00;99.90;;;21.96;57.42;95672.63;10489306;28;2282;-71
2022/08/30 18:08:12;;;;;;;;;;;22.90;99.90;;;21.73;59.22;95679.78;10486969;28;2292;-70
2022/08/30 18:13:15;;;;;;;;;;;22.70;99.90;;;21.54;60.72;95689.41;10486675;28;2245;-69
2022/08/30 18:18:18;;;;;;;;;;;22.50;99.90;;;21.37;62.42;95695.13;10488857;28;2375;-69
2022/08/30 18:23:21;;;;;;;;;;;22.40;99.90;;;21.15;65.03;95703.78;10487827;28;2359;-72
2022/08/30 18:28:25;;;;;;;;;;;22.20;99.90;;;20.98;66.89;95721.22;10486725;28;2049;-70
2022/08/30 18:33:28;;;;;;;;;;;22.00;99.90;;;20.87;68.69;95720.88;10486074;28;2370;-69
2022/08/30 18:38:32;;;;;;;;;;;21.80;99.90;;;20.70;70.09;95721.88;10488574;28;2352;-72
2022/08/30 18:43:35;;;;;;;;;;;21.70;99.90;;;20.71;70.92;95714.47;10483768;28;2335;-72
2022/08/30 18:48:38;;;;;;;;;;;21.60;99.90;;;20.65;72.13;95724.81;10478540;28;2056;-72
2022/08/30 18:53:41;;;;;;;;;;;21.60;99.90;;;20.49;73.63;95715.72;10479833;28;2634;-70
2022/08/30 18:58:46;;;;;;;;;;;21.50;99.90;;;20.39;74.69;95721.56;10484709;28;2270;-70
2022/08/30 19:03:49;;;;;;;;;;;21.40;99.90;;;20.47;74.97;95717.97;10466480;28;2068;-71
2022/08/30 19:08:54;;;;;;;;;;;21.40;99.90;;;20.33;75.77;95718.25;10486500;28;2353;-72
2022/08/30 19:13:57;;;;;;;;;;;21.30;99.90;;;20.33;76.29;95720.19;10484857;28;2050;-70
2022/08/30 19:19:00;;;;;;;;;;;21.20;99.90;;;20.12;78.09;95706.59;10486411;28;2269;-70
2022/08/30 19:24:03;;;;;;;;;;;21.20;99.90;;;19.95;78.66;95711.06;10485938;28;2364;-72
2022/08/30 19:29:06;;;;;;;;;;;21.00;99.90;;;20.01;79.20;95708.13;10486032;28;2347;-72
2022/08/30 19:34:09;;;;;;;;;;;20.90;99.90;;;19.96;80.33;95709.13;10486435;28;2337;-74
2022/08/30 19:39:14;;;;;;;;;;;20.90;99.90;;;19.97;81.24;95719.69;10485899;28;2082;-72
2022/08/30 19:44:19;;;;;;;;;;;20.80;99.90;;;19.84;83.38;95722.72;10481883;28;2300;-73
2022/08/30 19:49:22;;;;;;;;;;;20.80;99.90;;;19.62;84.60;95723.84;10485774;28;2336;-73
2022/08/30 19:54:25;;;;;;;;;;;20.70;99.90;;;19.63;85.58;95725.44;10482270;28;2340;-69
2022/08/30 19:59:28;;;;;;;;;;;20.60;99.90;;;19.62;85.54;95721.94;10482205;28;2417;-72
2022/08/30 20:04:32;;;;;;;;;;;20.60;99.90;;;19.62;85.14;95721.94;10485090;28;2439;-70
2022/08/30 20:09:46;;;;;;;;;;;;;;;;;;;;;
2022/08/30 20:14:56;;;;;;;;;;;20.50;99.90;;;19.69;86.11;95726.84;10484104;28;2312;-75
2022/08/30 20:20:02;;;;;;;;;;;20.70;99.90;;;19.77;86.86;95715.06;10485331;28;2072;-75
2022/08/30 20:25:06;;;;;;;;;;;20.70;99.90;;;19.67;87.07;95718.22;10484115;28;2297;-73
2022/08/30 20:30:13;;;;;;;;;;;20.60;99.90;;;19.74;85.87;95712.22;10481637;28;2368;-75
2022/08/30 20:35:16;;;;;;;;;;;20.70;99.90;;;19.79;85.88;95712.81;10482945;28;2364;-76
2022/08/30 20:40:20;;;;;;;;;;;20.80;99.90;;;19.87;86.31;95706.47;10484635;28;2192;-75
2022/08/30 20:45:23;;;;;;;;;;;20.80;99.90;;;19.63;87.03;95720.00;10483326;28;2328;-78
2022/08/30 20:50:32;;;;;;;;;;;20.70;99.90;;;19.31;89.74;95722.28;10488939;28;2383;-73
2022/08/30 20:55:35;;;;;;;;;;;20.50;99.90;;;19.32;91.12;95723.84;10488468;28;2337;-72
2022/08/30 21:00:38;;;;;;;;;;;20.40;99.90;;;19.35;90.82;95722.41;10487622;28;2420;-71
2022/08/30 21:05:41;;;;;;;;;;;20.40;99.90;;;19.33;92.05;95720.00;10503254;28;2473;-71
2022/08/30 21:10:43;;;;;;;;;;;20.30;99.90;;;19.27;92.77;95715.06;10486233;28;2389;-71
2022/08/30 21:15:46;;;;;;;;;;;20.20;99.90;;;19.33;93.66;95708.31;10484982;28;2175;-71
2022/08/30 21:20:49;;;;;;;;;;;20.30;99.90;;;19.26;94.43;95718.94;10484783;28;2352;-71
2022/08/30 21:25:52;;;;;;;;;;;20.20;99.90;;;19.18;94.24;95712.41;10478587;28;2341;-72
2022/08/30 21:30:55;;;;;;;;;;;20.20;99.90;;;19.04;95.64;95717.31;10480094;28;2036;-72
2022/08/30 21:41:20;;;;;;;;;;;20.00;99.90;;;18.99;97.15;95717.50;10488162;28;2364;-71
2022/08/30 21:46:23;;;;;;;;;;;19.90;99.90;;;18.98;98.01;95718.63;10481629;28;2321;-72
2022/08/30 21:51:26;;;;;;;;;;;19.80;99.90;;;18.87;98.61;95718.97;10484915;28;2569;-71
2022/08/30 21:56:29;;;;;;;;;;;19.80;99.90;;;18.83;98.71;95723.50;10485509;28;2064;-71
2022/08/30 22:01:32;;;;;;;;;;;19.70;99.90;;;18.56;100.00;95729.31;10483960;28;2571;-70
2022/08/30 22:06:35;;;;;;;;;;;19.60;99.90;;;18.56;100.00;95723.88;10481766;28;2017;-70
2022/08/30 22:11:38;;;;;;;;;;;19.60;99.90;;;18.57;100.00;95741.81;10484525;28;2347;-69
2022/08/30 22:16:41;;;;;;;;;;;19.40;99.90;;;18.46;100.00;95726.97;10484322;28;2269;-70
2022/08/30 22:21:46;;;;;;;;;;;19.40;99.90;;;18.27;100.00;95730.84;10494051;28;2346;-71
2022/08/30 22:26:50;;;;;;;;;;;19.30;99.90;;;18.21;100.00;95729.44;10484412;28;2008;-71
2022/08/30 22:31:53;;;;;;;;;;;19.20;99.90;;;18.08;100.00;95733.13;10487383;28;2286;-71
2022/08/30 22:36:56;;;;;;;;;;;19.10;99.90;;;18.03;100.00;95733.28;10463770;28;2294;-70
2022/08/30 22:41:59;;;;;;;;;;;19.10;99.90;;;18.06;100.00;95732.63;10479064;28;2360;-70
2022/08/30 22:47:02;;;;;;;;;;;19.00;99.90;;;18.03;100.00;95730.56;10485252;28;2365;-70
2022/08/30 22:52:04;;;;;;;;;;;18.90;99.90;;;17.86;100.00;95733.28;10489233;28;2339;-68
2022/08/30 22:57:08;;;;;;;;;;;18.90;99.90;;;17.90;100.00;95731.53;10480677;28;2338;-70
2022/08/30 23:02:14;;;;;;;;;;;18.80;99.90;;;17.73;100.00;95732.34;10486140;28;2410;-68
2022/08/30 23:07:16;;;;;;;;;;;18.70;99.90;;;17.77;100.00;95730.59;10482441;28;2455;-69
2022/08/30 23:12:19;;;;;;;;;;;18.70;99.90;;;17.83;100.00;95732.81;10459142;28;2063;-69
2022/08/30 23:17:22;;;;;;;;;;;18.70;99.90;;;17.82;100.00;95731.22;10482477;28;2417;-68
2022/08/30 23:22:25;;;;;;;;;;;18.70;99.90;;;17.76;100.00;95723.56;10481496;28;2409;-68
